Time;durP1;ratioP1;P1;durP2;ratioP2;P2;SDS_P1;SDS_P2;PMS_P1;PMS_P2;Temp;Humidity;BMP_temperature;BMP_pressure;BME280_temperature;BME280_humidity;BME280_pressure;Samples;Min_cycle;Max_cycle;Signal;HPM_P1;HPM_P2
2021/12/13 00:00:26;;;;;;;32.37;21.57;;;7.50;99.90;;;;;;647428;220;26622;-77
2021/12/13 00:02:57;;;;;;;33.93;21.07;;;7.60;99.90;;;;;;647461;222;26580;-77
2021/12/13 00:05:29;;;;;;;33.73;20.90;;;7.60;99.90;;;;;;647406;222;26549;-77
2021/12/13 00:07:56;;;;;;;30.73;19.47;;;7.50;99.90;;;;;;647345;222;26523;-77
2021/12/13 00:10:23;;;;;;;32.43;20.83;;;7.60;99.90;;;;;;647115;222;26523;-77
2021/12/13 00:12:52;;;;;;;32.20;20.83;;;7.60;99.90;;;;;;646956;222;26510;-77
2021/12/13 00:15:23;;;;;;;34.10;21.07;;;7.60;99.90;;;;;;646149;222;26745;-77
2021/12/13 00:17:51;;;;;;;33.47;19.73;;;7.60;99.90;;;;;;647117;222;26480;-78
2021/12/13 00:20:27;;;;;;;29.07;19.87;;;7.70;99.90;;;;;;647169;222;26515;-77
2021/12/13 00:22:48;;;;;;;31.67;20.13;;;8.00;99.90;;;;;;646537;222;26527;-77
2021/12/13 00:25:17;;;;;;;30.57;20.27;;;8.00;99.90;;;;;;647152;222;26559;-77
2021/12/13 00:27:46;;;;;;;30.23;19.17;;;8.20;99.90;;;;;;647103;222;26488;-77
2021/12/13 00:30:21;;;;;;;33.83;20.37;;;8.10;99.90;;;;;;647131;222;26552;-77
2021/12/13 00:33:00;;;;;;;29.90;19.83;;;7.90;99.90;;;;;;646765;222;26511;-77
2021/12/13 00:35:28;;;;;;;28.80;19.90;;;7.90;99.90;;;;;;646741;222;26480;-78
2021/12/13 00:37:57;;;;;;;27.87;19.13;;;7.90;99.90;;;;;;646493;222;26520;-77
2021/12/13 00:40:25;;;;;;;30.73;19.67;;;8.10;99.90;;;;;;646777;222;26579;-76
2021/12/13 00:42:53;;;;;;;30.03;19.93;;;7.60;99.90;;;;;;647280;220;26517;-77
2021/12/13 00:45:20;;;;;;;30.70;20.43;;;7.50;99.90;;;;;;648675;217;26836;-77
2021/12/13 00:47:48;;;;;;;26.70;19.57;;;7.40;99.90;;;;;;648822;222;26561;-77
2021/12/13 00:50:28;;;;;;;29.17;19.33;;;7.60;99.90;;;;;;648624;222;26765;-77
2021/12/13 00:52:56;;;;;;;26.23;18.67;;;7.60;99.90;;;;;;648382;222;26526;-77
2021/12/13 00:55:23;;;;;;;27.43;19.17;;;7.50;99.90;;;;;;648348;218;26479;-77
2021/12/13 00:57:51;;;;;;;28.33;19.90;;;7.70;99.90;;;;;;648134;222;26738;-77
2021/12/13 01:00:19;;;;;;;26.90;19.40;;;8.00;99.90;;;;;;648261;222;26517;-77
2021/12/13 01:02:48;;;;;;;29.03;18.77;;;8.10;99.90;;;;;;647187;220;26561;-77
2021/12/13 01:05:17;;;;;;;31.63;20.07;;;8.40;99.90;;;;;;647298;222;26580;-77
2021/12/13 01:07:47;;;;;;;27.73;19.03;;;8.50;99.90;;;;;;647081;222;26600;-77
2021/12/13 01:10:28;;;;;;;30.03;19.77;;;8.50;99.90;;;;;;646355;222;26805;-77
2021/12/13 01:12:55;;;;;;;26.17;18.07;;;8.40;99.90;;;;;;646429;222;26600;-77
2021/12/13 01:15:29;;;;;;;26.57;18.33;;;8.30;99.90;;;;;;647489;222;26567;-77
2021/12/13 01:17:58;;;;;;;28.97;19.20;;;7.80;99.90;;;;;;646904;222;26582;-77
2021/12/13 01:20:29;;;;;;;28.20;18.73;;;7.80;99.90;;;;;;646780;222;26538;-77
2021/12/13 01:22:57;;;;;;;27.30;19.17;;;8.10;99.90;;;;;;646822;222;26479;-77
2021/12/13 01:28:01;;;;;;;25.20;18.00;;;8.10;99.90;;;;;;647244;222;26503;-77
2021/12/13 01:30:28;;;;;;;28.00;18.27;;;8.10;99.90;;;;;;647032;221;26543;-77
2021/12/13 01:32:56;;;;;;;26.53;18.80;;;8.40;99.90;;;;;;646565;222;26521;-77
2021/12/13 01:35:24;;;;;;;27.67;18.67;;;8.40;99.90;;;;;;647213;222;26516;-77
2021/12/13 01:37:53;;;;;;;27.80;18.57;;;8.30;99.90;;;;;;647138;222;26906;-77
2021/12/13 01:40:18;;;;;;;29.63;18.93;;;8.30;99.90;;;;;;647072;222;26547;-77
2021/12/13 01:42:45;;;;;;;29.10;19.23;;;8.40;99.90;;;;;;647210;218;26862;-77
2021/12/13 01:45:13;;;;;;;24.97;18.20;;;8.50;99.90;;;;;;646523;222;26565;-77
2021/12/13 01:47:41;;;;;;;27.87;18.00;;;8.80;99.90;;;;;;647048;222;26781;-77
2021/12/13 01:50:09;;;;;;;25.03;18.23;;;9.00;99.90;;;;;;647003;222;26788;-77
2021/12/13 01:52:37;;;;;;;28.87;18.67;;;9.20;99.90;;;;;;647107;222;26519;-77
2021/12/13 01:55:05;;;;;;;24.53;17.63;;;9.30;99.90;;;;;;648094;220;26524;-77
2021/12/13 01:57:47;;;;;;;25.57;17.90;;;9.30;99.90;;;;;;648259;221;26556;-77
2021/12/13 02:00:09;;;;;;;25.87;18.43;;;9.30;99.90;;;;;;647806;222;26817;-77
2021/12/13 02:02:37;;;;;;;25.60;17.60;;;9.00;99.90;;;;;;648041;222;26502;-77
2021/12/13 02:05:06;;;;;;;24.87;17.87;;;8.90;99.90;;;;;;648239;222;26494;-77
2021/12/13 02:07:38;;;;;;;27.40;18.17;;;8.30;99.90;;;;;;648335;222;26502;-77
2021/12/13 02:10:06;;;;;;;26.03;18.27;;;8.40;99.90;;;;;;648176;222;26605;-77
2021/12/13 02:12:34;;;;;;;26.53;18.87;;;8.40;99.90;;;;;;647724;222;26550;-77
2021/12/13 02:17:33;;;;;;;29.47;18.60;;;8.20;99.90;;;;;;647641;222;26554;-77
2021/12/13 02:20:00;;;;;;;27.97;18.80;;;8.40;99.90;;;;;;647520;220;26582;-77
2021/12/13 02:22:35;;;;;;;27.43;19.07;;;8.50;99.90;;;;;;647100;222;26554;-78
2021/12/13 02:25:07;;;;;;;27.03;19.13;;;8.50;99.90;;;;;;647355;222;26584;-77
2021/12/13 02:27:34;;;;;;;29.20;18.00;;;8.40;99.90;;;;;;647104;222;26587;-77
2021/12/13 02:30:01;;;;;;;26.60;17.73;;;8.40;99.90;;;;;;647518;222;26814;-78
2021/12/13 02:32:35;;;;;;;28.93;18.37;;;8.50;99.90;;;;;;646741;222;26526;-77
2021/12/13 02:34:56;;;;;;;29.23;17.93;;;8.40;99.90;;;;;;646691;222;26855;-77
2021/12/13 02:37:24;;;;;;;26.90;17.63;;;8.30;99.90;;;;;;647195;220;26472;-77
2021/12/13 02:39:56;;;;;;;28.50;19.03;;;8.50;99.90;;;;;;647097;222;26547;-77
2021/12/13 02:42:18;;;;;;;29.40;18.30;;;8.60;99.90;;;;;;646777;222;26762;-78
2021/12/13 02:44:45;;;;;;;30.87;19.07;;;8.40;99.90;;;;;;647152;222;26532;-77
2021/12/13 02:47:18;;;;;;;31.13;19.03;;;8.60;99.90;;;;;;647133;222;27171;-77
2021/12/13 02:49:46;;;;;;;28.40;18.47;;;9.00;99.90;;;;;;646968;222;26567;-77
2021/12/13 02:52:14;;;;;;;31.13;19.63;;;9.10;99.90;;;;;;647266;218;26528;-77
2021/12/13 02:54:42;;;;;;;30.57;19.17;;;9.20;99.90;;;;;;647234;222;26542;-77
2021/12/13 02:57:12;;;;;;;29.43;19.23;;;9.40;99.90;;;;;;647151;220;26553;-77
2021/12/13 02:59:39;;;;;;;31.07;18.50;;;9.40;99.90;;;;;;647120;222;26821;-77
2021/12/13 03:02:07;;;;;;;29.03;18.57;;;9.50;99.90;;;;;;647095;222;26495;-77
2021/12/13 03:04:34;;;;;;;27.77;17.27;;;9.60;99.90;;;;;;646984;221;26516;-77
2021/12/13 03:07:15;;;;;;;28.70;18.07;;;8.90;99.90;;;;;;648374;220;26539;-77
2021/12/13 03:09:42;;;;;;;26.87;18.07;;;8.90;99.90;;;;;;648665;222;26543;-77
2021/12/13 03:12:09;;;;;;;28.63;18.97;;;8.60;99.90;;;;;;648199;222;27227;-77
2021/12/13 03:14:38;;;;;;;27.80;18.33;;;8.40;99.90;;;;;;648073;222;26524;-77
2021/12/13 03:17:04;;;;;;;29.27;18.57;;;8.60;99.90;;;;;;647607;220;26797;-78
2021/12/13 03:19:36;;;;;;;26.33;16.47;;;8.50;99.90;;;;;;648073;222;26514;-78
2021/12/13 03:22:21;;;;;;;27.30;17.70;;;8.60;99.90;;;;;;647385;222;26480;-77
2021/12/13 03:25:15;;;;;;;27.07;17.40;;;8.30;99.90;;;;;;640129;220;26540;-78
2021/12/13 03:27:47;;;;;;;27.50;17.73;;;8.40;99.90;;;;;;647539;222;26534;-76
2021/12/13 03:30:16;;;;;;;29.07;17.97;;;8.40;99.90;;;;;;647401;222;26563;-76
2021/12/13 03:32:43;;;;;;;30.40;17.70;;;8.60;99.90;;;;;;647795;222;26528;-76
2021/12/13 03:35:10;;;;;;;27.50;17.47;;;8.80;99.90;;;;;;647595;222;26783;-77
2021/12/13 03:37:38;;;;;;;30.87;18.13;;;8.80;99.90;;;;;;647150;222;26554;-76
2021/12/13 03:40:06;;;;;;;31.37;18.80;;;8.80;99.90;;;;;;647398;222;26989;-76
2021/12/13 03:42:36;;;;;;;27.73;17.30;;;8.90;99.90;;;;;;646973;222;26584;-76
2021/12/13 03:45:03;;;;;;;30.90;17.93;;;9.00;99.90;;;;;;646838;222;26768;-77
2021/12/13 03:47:34;;;;;;;31.13;18.30;;;8.90;99.90;;;;;;646967;222;26528;-77
2021/12/13 03:49:59;;;;;;;29.80;17.60;;;8.80;99.90;;;;;;646802;222;26559;-76
2021/12/13 03:52:27;;;;;;;29.43;17.00;;;8.80;99.90;;;;;;647076;222;26539;-76
2021/12/13 03:54:54;;;;;;;29.23;18.33;;;9.00;99.90;;;;;;647075;222;26512;-76
2021/12/13 03:57:21;;;;;;;35.03;19.47;;;9.00;99.90;;;;;;647110;222;26785;-76
2021/12/13 03:59:48;;;;;;;33.30;18.67;;;8.80;99.90;;;;;;647070;218;26560;-76
2021/12/13 04:02:17;;;;;;;30.40;17.17;;;8.60;99.90;;;;;;647167;222;26775;-76
2021/12/13 04:04:46;;;;;;;32.37;19.37;;;8.40;99.90;;;;;;647125;218;26516;-76
2021/12/13 04:07:13;;;;;;;32.67;17.83;;;8.40;99.90;;;;;;647147;222;26564;-76
2021/12/13 04:09:40;;;;;;;30.30;18.03;;;8.60;99.90;;;;;;647109;222;27188;-76
2021/12/13 04:12:07;;;;;;;31.00;17.70;;;8.60;99.90;;;;;;647227;221;26508;-80
2021/12/13 04:14:37;;;;;;;29.77;18.13;;;8.50;99.90;;;;;;647290;222;26843;-79
2021/12/13 04:17:21;;;;;;;31.17;17.73;;;8.40;99.90;;;;;;646949;220;26501;-79
2021/12/13 04:19:51;;;;;;;31.83;17.57;;;8.30;99.90;;;;;;647837;221;27251;-79
2021/12/13 04:22:18;;;;;;;32.17;18.43;;;8.20;99.90;;;;;;648536;222;26527;-79
2021/12/13 04:24:47;;;;;;;32.13;17.97;;;8.70;99.90;;;;;;648222;222;26539;-79
2021/12/13 04:27:19;;;;;;;29.33;18.27;;;8.70;99.90;;;;;;647890;222;26530;-79
2021/12/13 04:29:47;;;;;;;30.03;18.00;;;8.70;99.90;;;;;;647704;222;26561;-79
2021/12/13 04:32:24;;;;;;;31.07;18.33;;;8.70;99.90;;;;;;647790;220;26518;-80
2021/12/13 04:34:53;;;;;;;30.80;17.07;;;8.30;99.90;;;;;;647739;222;26857;-79
2021/12/13 04:37:20;;;;;;;29.57;16.40;;;8.30;99.90;;;;;;647584;222;26584;-79
2021/12/13 04:39:47;;;;;;;31.27;17.20;;;8.40;99.90;;;;;;647440;222;26894;-79
2021/12/13 04:42:15;;;;;;;30.67;16.80;;;8.30;99.90;;;;;;647377;222;26563;-80
2021/12/13 04:45:04;;;;;;;30.67;17.50;;;8.30;99.90;;;;;;647583;222;26587;-79
2021/12/13 04:47:44;;;;;;;33.60;17.53;;;8.30;99.90;;;;;;646761;222;26939;-79
2021/12/13 04:50:11;;;;;;;33.47;17.10;;;8.40;99.90;;;;;;647381;222;26585;-80
2021/12/13 04:52:38;;;;;;;35.40;17.83;;;8.40;99.90;;;;;;647750;222;26807;-79
2021/12/13 04:55:06;;;;;;;34.73;18.07;;;8.20;99.90;;;;;;647345;222;26532;-79
2021/12/13 04:57:33;;;;;;;32.57;17.90;;;8.00;99.90;;;;;;647111;222;26809;-79
2021/12/13 05:00:00;;;;;;;28.20;16.07;;;8.20;99.90;;;;;;647222;222;26535;-79
2021/12/13 05:02:28;;;;;;;33.03;17.20;;;8.50;99.90;;;;;;646959;222;26751;-79
2021/12/13 05:04:56;;;;;;;34.60;16.97;;;8.50;99.90;;;;;;647207;222;26504;-80
2021/12/13 05:07:23;;;;;;;35.57;17.23;;;8.60;99.90;;;;;;647291;222;26758;-80
2021/12/13 05:09:51;;;;;;;33.53;17.07;;;8.60;99.90;;;;;;647193;220;26523;-80
2021/12/13 05:12:21;;;;;;;36.07;18.03;;;8.70;99.90;;;;;;647179;222;26512;-80
2021/12/13 05:14:47;;;;;;;39.37;18.10;;;8.50;99.90;;;;;;646925;222;26549;-80
2021/12/13 05:17:15;;;;;;;40.03;18.50;;;8.40;99.90;;;;;;647104;222;26526;-80
2021/12/13 05:19:45;;;;;;;39.90;18.17;;;8.40;99.90;;;;;;647155;222;26547;-79
2021/12/13 05:22:11;;;;;;;42.07;18.20;;;8.40;99.90;;;;;;647186;222;26741;-80
2021/12/13 05:24:43;;;;;;;42.57;20.40;;;8.40;99.90;;;;;;647371;222;26731;-79
2021/12/13 05:27:11;;;;;;;44.00;18.70;;;8.40;99.90;;;;;;647011;222;26515;-80
2021/12/13 05:29:40;;;;;;;41.37;17.23;;;8.40;99.90;;;;;;647884;220;26514;-80
2021/12/13 05:32:08;;;;;;;46.13;18.10;;;8.10;99.90;;;;;;648860;217;26543;-80
2021/12/13 05:34:36;;;;;;;47.33;20.30;;;8.10;99.90;;;;;;648185;222;26820;-80
2021/12/13 05:37:03;;;;;;;47.97;18.80;;;8.20;99.90;;;;;;648150;222;26507;-80
2021/12/13 05:39:31;;;;;;;41.73;18.27;;;8.20;99.90;;;;;;647971;222;26542;-80
2021/12/13 05:41:58;;;;;;;43.90;17.37;;;8.10;99.90;;;;;;647810;222;26822;-80
2021/12/13 05:44:25;;;;;;;50.00;19.67;;;8.20;99.90;;;;;;647584;220;26763;-82
2021/12/13 05:46:52;;;;;;;45.43;20.57;;;8.30;99.90;;;;;;647632;222;26740;-80
2021/12/13 05:49:24;;;;;;;46.63;19.20;;;8.30;99.90;;;;;;647448;218;26824;-79
2021/12/13 05:51:54;;;;;;;41.60;18.60;;;8.50;99.90;;;;;;647458;222;26883;-79
2021/12/13 05:54:24;;;;;;;44.43;18.90;;;8.40;99.90;;;;;;647452;222;26769;-80
2021/12/13 05:56:56;;;;;;;49.93;21.33;;;8.40;99.90;;;;;;647399;222;26544;-80
2021/12/13 05:59:25;;;;;;;47.27;18.80;;;8.40;99.90;;;;;;647270;222;26607;-82
2021/12/13 06:01:59;;;;;;;52.10;20.93;;;8.30;99.90;;;;;;647475;222;26817;-80
2021/12/13 06:04:31;;;;;;;59.67;21.43;;;8.50;99.90;;;;;;647356;222;26568;-81
2021/12/13 06:06:58;;;;;;;53.30;21.30;;;8.80;99.90;;;;;;647065;222;26568;-81
2021/12/13 06:09:38;;;;;;;53.53;20.97;;;8.50;99.90;;;;;;647220;222;26575;-81
2021/12/13 06:12:05;;;;;;;56.30;20.53;;;8.50;99.90;;;;;;647223;218;26753;-81
2021/12/13 06:14:33;;;;;;;47.67;19.93;;;8.40;99.90;;;;;;647156;222;26769;-80
2021/12/13 06:17:10;;;;;;;47.97;20.03;;;8.30;99.90;;;;;;647221;222;26527;-80
2021/12/13 06:19:38;;;;;;;54.17;22.63;;;8.30;99.90;;;;;;646987;222;26548;-80
2021/12/13 06:22:07;;;;;;;51.40;22.20;;;8.40;99.90;;;;;;647156;222;26512;-79
2021/12/13 06:24:34;;;;;;;43.50;19.90;;;8.30;99.90;;;;;;647604;222;26777;-80
2021/12/13 06:27:07;;;;;;;53.63;21.27;;;8.30;99.90;;;;;;647419;219;26537;-80
2021/12/13 06:29:43;;;;;;;50.03;20.20;;;8.40;99.90;;;;;;647461;222;26991;-80
2021/12/13 06:32:20;;;;;;;52.00;18.87;;;8.40;99.90;;;;;;647437;222;26545;-80
2021/12/13 06:34:48;;;;;;;52.07;19.73;;;8.40;99.90;;;;;;647671;222;26839;-80
2021/12/13 06:37:15;;;;;;;49.63;18.97;;;8.50;99.90;;;;;;647708;222;26492;-79
2021/12/13 06:39:42;;;;;;;53.90;19.47;;;8.30;99.90;;;;;;647153;222;26807;-80
2021/12/13 06:42:13;;;;;;;49.63;18.63;;;8.40;99.90;;;;;;649053;220;26483;-82
2021/12/13 06:44:38;;;;;;;45.93;17.90;;;8.50;99.90;;;;;;648839;222;26499;-80
2021/12/13 06:47:07;;;;;;;53.80;17.87;;;8.50;99.90;;;;;;648554;220;26808;-80
2021/12/13 06:49:37;;;;;;;53.07;19.27;;;8.30;99.90;;;;;;648287;217;26498;-80
2021/12/13 06:52:10;;;;;;;51.07;18.27;;;8.30;99.90;;;;;;647721;222;26547;-80
2021/12/13 06:54:41;;;;;;;54.27;19.27;;;8.30;99.90;;;;;;646972;222;26554;-80
2021/12/13 06:57:10;;;;;;;50.20;17.73;;;8.30;99.90;;;;;;647731;218;26796;-84
2021/12/13 06:59:49;;;;;;;48.27;17.80;;;8.40;99.90;;;;;;647294;222;26804;-80
2021/12/13 07:02:18;;;;;;;46.23;17.47;;;8.40;99.90;;;;;;647437;222;26573;-80
2021/12/13 07:04:53;;;;;;;44.80;16.27;;;8.20;99.90;;;;;;647470;218;26584;-81
2021/12/13 07:07:20;;;;;;;40.80;17.60;;;8.20;99.90;;;;;;647509;222;26563;-80
2021/12/13 07:09:51;;;;;;;50.30;18.00;;;8.40;99.90;;;;;;647322;222;26893;-79
2021/12/13 07:12:19;;;;;;;49.50;17.20;;;8.40;99.90;;;;;;647442;222;26576;-79
2021/12/13 07:14:48;;;;;;;48.70;17.33;;;8.40;99.90;;;;;;647654;222;26576;-80
2021/12/13 07:17:16;;;;;;;42.67;16.63;;;8.40;99.90;;;;;;647537;222;26595;-79
2021/12/13 07:19:44;;;;;;;44.67;16.40;;;8.60;99.90;;;;;;647187;222;26512;-79
2021/12/13 07:22:12;;;;;;;50.23;18.27;;;8.50;99.90;;;;;;647307;222;26528;-80
2021/12/13 07:24:42;;;;;;;48.80;18.83;;;8.50;99.90;;;;;;647070;222;26514;-80
2021/12/13 07:27:17;;;;;;;49.97;18.27;;;8.60;99.90;;;;;;647147;222;26523;-79
2021/12/13 07:30:06;;;;;;;50.77;17.43;;;8.70;99.90;;;;;;646464;222;26591;-81
2021/12/13 07:32:42;;;;;;;53.80;16.87;;;8.50;99.90;;;;;;647187;221;27226;-80
2021/12/13 07:35:23;;;;;;;51.43;18.87;;;8.40;99.90;;;;;;645496;222;26532;-80
2021/12/13 07:37:55;;;;;;;44.50;16.13;;;8.90;99.90;;;;;;646697;221;26527;-79
2021/12/13 07:40:27;;;;;;;40.43;15.23;;;8.90;99.90;;;;;;648178;222;26605;-78
2021/12/13 07:42:55;;;;;;;40.70;17.27;;;8.80;99.90;;;;;;638094;221;26602;-77
2021/12/13 07:45:23;;;;;;;43.57;17.70;;;8.70;99.90;;;;;;643294;222;26549;-79
2021/12/13 07:47:51;;;;;;;37.67;16.03;;;9.00;99.90;;;;;;640383;222;26756;-77
2021/12/13 07:50:18;;;;;;;46.60;17.87;;;9.40;99.90;;;;;;642421;222;26539;-77
2021/12/13 07:52:45;;;;;;;47.83;18.43;;;9.50;99.90;;;;;;642743;220;26539;-77
2021/12/13 07:55:14;;;;;;;42.30;17.63;;;9.40;99.90;;;;;;644639;221;26484;-77
2021/12/13 07:57:41;;;;;;;41.73;19.40;;;9.40;99.90;;;;;;643203;221;26546;-77
2021/12/13 08:00:11;;;;;;;43.03;18.23;;;9.50;99.90;;;;;;643445;221;26550;-77
2021/12/13 08:02:39;;;;;;;49.03;19.37;;;9.40;99.90;;;;;;642079;222;26799;-77
2021/12/13 08:05:09;;;;;;;43.03;19.60;;;9.50;99.90;;;;;;645871;222;26490;-77
2021/12/13 08:07:40;;;;;;;44.23;18.53;;;9.00;99.90;;;;;;639322;222;26516;-77
2021/12/13 08:10:13;;;;;;;40.87;18.47;;;9.00;99.90;;;;;;640152;222;26537;-77
2021/12/13 08:12:40;;;;;;;41.77;17.83;;;9.30;99.90;;;;;;641259;221;26553;-78
2021/12/13 08:15:10;;;;;;;41.77;17.73;;;9.20;99.90;;;;;;648519;221;26510;-77
2021/12/13 08:17:54;;;;;;;39.87;17.77;;;9.30;99.90;;;;;;642783;221;26803;-78
2021/12/13 08:20:22;;;;;;;36.50;16.83;;;9.30;99.90;;;;;;646390;221;26820;-78
2021/12/13 08:22:50;;;;;;;38.07;17.90;;;9.40;99.90;;;;;;643702;220;26783;-78
2021/12/13 08:25:17;;;;;;;40.60;17.67;;;9.30;99.90;;;;;;645027;222;26579;-78
2021/12/13 08:27:44;;;;;;;38.27;16.93;;;9.30;99.90;;;;;;641852;220;26569;-78
2021/12/13 08:30:13;;;;;;;39.00;16.90;;;9.30;99.90;;;;;;643540;221;26835;-78
2021/12/13 08:33:01;;;;;;;31.83;16.17;;;9.80;99.90;;;;;;640317;221;26582;-80
2021/12/13 08:35:28;;;;;;;37.67;17.30;;;9.80;99.90;;;;;;644008;222;26800;-80
2021/12/13 08:37:55;;;;;;;37.30;17.50;;;9.70;99.90;;;;;;643316;221;26578;-79
2021/12/13 08:40:22;;;;;;;33.00;16.63;;;9.80;99.90;;;;;;637968;222;26813;-79
2021/12/13 08:42:50;;;;;;;33.23;16.90;;;9.90;99.90;;;;;;641342;222;26585;-82
2021/12/13 08:45:31;;;;;;;36.33;17.10;;;9.80;99.90;;;;;;643937;222;26810;-82
2021/12/13 08:47:58;;;;;;;34.53;16.80;;;10.00;99.90;;;;;;644365;221;26617;-83
2021/12/13 08:50:27;;;;;;;37.30;16.87;;;10.10;99.90;;;;;;643246;221;26616;-80
2021/12/13 08:52:54;;;;;;;33.40;16.60;;;10.10;99.90;;;;;;640143;221;26611;-82
2021/12/13 08:55:23;;;;;;;31.03;15.57;;;10.00;99.90;;;;;;639784;221;26567;-81
2021/12/13 08:57:56;;;;;;;25.73;14.63;;;10.00;99.90;;;;;;646464;221;26558;-82
2021/12/13 09:00:40;;;;;;;29.87;15.40;;;9.90;99.90;;;;;;644428;222;26619;-81
2021/12/13 09:03:28;;;;;;;27.40;15.03;;;10.00;99.90;;;;;;644189;222;26814;-81
2021/12/13 09:06:03;;;;;;;27.37;15.23;;;9.70;99.90;;;;;;644594;220;26595;-80
2021/12/13 09:08:46;;;;;;;26.57;14.23;;;9.70;99.90;;;;;;646006;220;26795;-80
2021/12/13 09:11:15;;;;;;;24.90;14.33;;;9.80;99.90;;;;;;642990;219;26595;-83
2021/12/13 09:13:48;;;;;;;28.00;15.07;;;10.10;99.90;;;;;;644882;217;26569;-86
2021/12/13 09:16:17;;;;;;;25.73;14.23;;;10.00;99.90;;;;;;641508;222;26809;-82
2021/12/13 09:18:41;;;;;;;26.30;15.23;;;9.90;99.90;;;;;;647983;222;26585;-83
2021/12/13 09:21:09;;;;;;;23.87;13.63;;;10.00;99.90;;;;;;639481;222;26796;-84
2021/12/13 09:23:36;;;;;;;30.57;15.03;;;10.30;99.90;;;;;;637876;222;26559;-82
2021/12/13 09:26:09;;;;;;;24.53;14.33;;;10.10;99.90;;;;;;644753;222;26776;-82
2021/12/13 09:28:37;;;;;;;23.47;13.50;;;10.10;99.90;;;;;;642425;222;27041;-83
2021/12/13 09:31:08;;;;;;;24.83;13.43;;;10.20;99.90;;;;;;643065;221;26564;-83
2021/12/13 09:33:38;;;;;;;23.13;13.87;;;9.90;99.90;;;;;;641353;221;26558;-83
2021/12/13 09:36:06;;;;;;;20.70;12.80;;;9.60;99.90;;;;;;641147;222;26562;-84
2021/12/13 09:38:38;;;;;;;26.23;14.30;;;9.90;99.90;;;;;;645803;222;26854;-85
2021/12/13 09:41:28;;;;;;;25.30;14.13;;;10.00;99.90;;;;;;648501;221;26558;-84
2021/12/13 09:44:00;;;;;;;31.50;17.00;;;10.40;99.90;;;;;;647086;221;26812;-84
2021/12/13 09:46:30;;;;;;;27.27;14.47;;;10.40;99.90;;;;;;648063;221;26577;-83
2021/12/13 09:48:57;;;;;;;31.70;16.47;;;10.30;99.90;;;;;;638445;221;26598;-84
2021/12/13 09:51:27;;;;;;;25.50;14.23;;;10.90;99.90;;;;;;637341;226;26572;-83
2021/12/13 09:53:55;;;;;;;22.43;13.53;;;10.90;99.90;;;;;;637313;222;26609;-87
2021/12/13 09:56:22;;;;;;;22.07;12.93;;;11.00;99.90;;;;;;647207;222;26504;-84
2021/12/13 09:58:52;;;;;;;20.67;11.57;;;10.40;99.90;;;;;;643964;222;26551;-84
2021/12/13 10:01:33;;;;;;;22.73;12.67;;;10.40;99.90;;;;;;637463;226;26514;-84
2021/12/13 10:04:01;;;;;;;23.13;13.47;;;10.30;99.90;;;;;;637473;226;26578;-84
2021/12/13 10:06:30;;;;;;;20.70;11.93;;;10.40;99.90;;;;;;644767;222;26511;-84
2021/12/13 10:09:07;;;;;;;20.00;11.87;;;10.40;99.90;;;;;;646978;222;26546;-84
2021/12/13 10:11:46;;;;;;;24.13;12.60;;;10.30;99.90;;;;;;647377;222;26496;-84
2021/12/13 10:14:13;;;;;;;21.53;11.47;;;10.20;99.90;;;;;;647184;222;26756;-85
2021/12/13 10:16:40;;;;;;;19.53;11.47;;;10.40;99.90;;;;;;640125;222;26578;-85
2021/12/13 10:19:07;;;;;;;24.63;11.83;;;10.70;99.90;;;;;;638718;225;26786;-84
2021/12/13 10:21:35;;;;;;;20.47;11.63;;;10.90;99.90;;;;;;638321;225;26573;-83
2021/12/13 10:24:03;;;;;;;20.37;11.33;;;11.20;99.90;;;;;;638291;225;26594;-85
2021/12/13 10:26:31;;;;;;;17.30;11.17;;;11.20;99.90;;;;;;637732;221;26757;-85
2021/12/13 10:28:58;;;;;;;17.00;11.23;;;11.00;99.90;;;;;;637699;225;26787;-84
2021/12/13 10:31:28;;;;;;;19.40;11.70;;;11.10;99.90;;;;;;637858;225;26592;-84
2021/12/13 10:33:55;;;;;;;20.23;11.43;;;10.80;99.90;;;;;;637770;225;26529;-85
2021/12/13 10:36:23;;;;;;;18.43;12.70;;;10.50;99.90;;;;;;637628;225;26582;-86
2021/12/13 10:38:50;;;;;;;22.07;13.03;;;10.70;99.90;;;;;;637675;225;26650;-86
2021/12/13 10:41:36;;;;;;;22.70;12.87;;;10.80;99.90;;;;;;637322;225;26568;-87
2021/12/13 10:44:05;;;;;;;21.33;12.90;;;10.70;99.90;;;;;;637302;225;27323;-85
2021/12/13 10:46:32;;;;;;;20.17;14.30;;;10.70;99.90;;;;;;637207;225;26564;-84
2021/12/13 10:48:59;;;;;;;26.27;14.27;;;10.80;99.90;;;;;;637292;225;26601;-85
2021/12/13 10:51:32;;;;;;;25.30;14.73;;;10.70;99.90;;;;;;641121;222;26569;-86
2021/12/13 10:53:59;;;;;;;25.37;15.17;;;10.70;99.90;;;;;;648268;221;26578;-85
2021/12/13 10:56:27;;;;;;;23.60;15.83;;;10.70;99.90;;;;;;648922;221;26523;-85
2021/12/13 10:58:55;;;;;;;24.47;14.20;;;10.90;99.90;;;;;;646755;221;26614;-84
2021/12/13 11:01:23;;;;;;;27.53;15.77;;;11.50;99.90;;;;;;637061;226;26609;-83
2021/12/13 11:03:51;;;;;;;23.07;13.60;;;11.50;99.90;;;;;;642261;222;27343;-83
2021/12/13 11:06:18;;;;;;;26.97;14.80;;;11.60;99.90;;;;;;647209;222;26494;-83
2021/12/13 11:08:45;;;;;;;27.90;15.20;;;11.80;99.90;;;;;;644285;222;26802;-86
2021/12/13 11:11:13;;;;;;;25.23;13.67;;;11.30;99.90;;;;;;647416;218;26484;-87
2021/12/13 11:13:39;;;;;;;23.90;15.00;;;11.10;99.90;;;;;;647201;222;26791;-86
2021/12/13 11:16:07;;;;;;;26.10;14.93;;;10.80;99.90;;;;;;646582;222;26515;-85
2021/12/13 11:18:34;;;;;;;26.17;14.97;;;10.60;99.90;;;;;;639039;222;27488;-83
2021/12/13 11:21:01;;;;;;;23.87;14.30;;;10.60;99.90;;;;;;640750;222;26578;-86
2021/12/13 11:23:28;;;;;;;24.93;14.80;;;10.50;99.90;;;;;;645340;222;26603;-84
2021/12/13 11:25:55;;;;;;;28.17;14.50;;;10.60;99.90;;;;;;643052;221;26586;-80
2021/12/13 11:28:23;;;;;;;27.00;15.63;;;10.70;99.90;;;;;;643576;220;26573;-77
2021/12/13 11:30:50;;;;;;;27.07;14.83;;;10.60;99.90;;;;;;643881;220;26572;-76
2021/12/13 11:33:29;;;;;;;25.33;15.03;;;10.80;99.90;;;;;;644311;219;26564;-77
2021/12/13 11:36:03;;;;;;;25.13;14.60;;;10.80;99.90;;;;;;644449;221;26565;-77
2021/12/13 11:38:36;;;;;;;26.43;16.17;;;10.70;99.90;;;;;;642957;218;26527;-77
2021/12/13 11:41:19;;;;;;;24.90;15.33;;;10.90;99.90;;;;;;647112;221;26500;-76
2021/12/13 11:43:52;;;;;;;25.40;14.07;;;10.90;99.90;;;;;;645131;220;26593;-79
2021/12/13 11:46:29;;;;;;;25.87;15.63;;;11.10;99.90;;;;;;648369;221;26507;-80
2021/12/13 11:49:06;;;;;;;25.60;15.70;;;11.30;99.90;;;;;;647243;221;26552;-80
2021/12/13 11:51:41;;;;;;;26.10;15.17;;;11.50;99.90;;;;;;647960;221;26579;-80
2021/12/13 11:54:20;;;;;;;26.47;15.40;;;11.50;99.90;;;;;;647809;221;26597;-80
2021/12/13 11:57:04;;;;;;;24.40;13.63;;;11.40;99.90;;;;;;639668;221;26597;-81
2021/12/13 11:59:33;;;;;;;23.67;13.87;;;11.10;99.90;;;;;;637272;225;26584;-80
2021/12/13 12:02:03;;;;;;;19.73;13.53;;;11.10;99.90;;;;;;637322;225;26747;-80
2021/12/13 12:04:41;;;;;;;21.60;13.47;;;11.20;99.90;;;;;;636993;225;26582;-80
2021/12/13 12:07:27;;;;;;;20.70;12.63;;;11.00;99.90;;;;;;636219;225;26764;-80
2021/12/13 12:10:06;;;;;;;22.70;12.93;;;10.60;99.90;;;;;;641773;222;26571;-80
2021/12/13 12:12:39;;;;;;;16.37;11.83;;;10.70;99.90;;;;;;647823;221;26878;-80
2021/12/13 12:15:06;;;;;;;18.47;12.37;;;11.10;99.90;;;;;;636860;226;26545;-80
2021/12/13 12:17:33;;;;;;;16.90;12.00;;;11.30;99.90;;;;;;637413;226;26874;-80
2021/12/13 12:20:00;;;;;;;15.20;11.43;;;11.50;99.90;;;;;;637288;226;26608;-80
2021/12/13 12:22:28;;;;;;;17.53;11.40;;;11.60;99.90;;;;;;637366;226;26816;-80
2021/12/13 12:24:55;;;;;;;22.37;10.87;;;11.80;99.90;;;;;;636277;226;26599;-80
2021/12/13 12:27:23;;;;;;;14.70;10.53;;;11.60;99.90;;;;;;642489;219;27467;-81
2021/12/13 12:29:54;;;;;;;16.93;11.80;;;11.30;99.90;;;;;;646832;222;26572;-81
2021/12/13 12:32:22;;;;;;;15.07;10.60;;;11.30;99.90;;;;;;645748;222;26515;-84
2021/12/13 12:34:50;;;;;;;16.60;11.03;;;11.30;99.90;;;;;;637203;226;26587;-81
2021/12/13 12:37:38;;;;;;;16.93;11.13;;;11.60;99.90;;;;;;637175;226;26788;-81
2021/12/13 12:40:19;;;;;;;16.33;10.93;;;11.60;99.90;;;;;;636362;223;26829;-81
2021/12/13 12:42:46;;;;;;;13.47;9.77;;;11.80;99.90;;;;;;638474;225;26515;-81
2021/12/13 12:45:18;;;;;;;14.27;9.73;;;11.90;99.90;;;;;;642954;222;26574;-81
2021/12/13 12:48:06;;;;;;;17.47;10.23;;;11.80;99.90;;;;;;647923;222;26514;-81
2021/12/13 12:50:34;;;;;;;13.83;9.00;;;11.80;99.90;;;;;;648295;221;26582;-82
2021/12/13 12:53:04;;;;;;;11.37;9.00;;;12.00;99.90;;;;;;637710;225;26560;-81